createdAt,value
2022-10-29T00:02:25.593Z,21.24
2022-10-29T00:04:52.270Z,21.28
2022-10-29T00:07:18.903Z,21.23
2022-10-29T00:09:45.665Z,21.11
2022-10-29T00:12:12.333Z,21.07
2022-10-29T00:14:39.162Z,21.03
2022-10-29T00:17:05.859Z,21.05
2022-10-29T00:19:32.566Z,21.02
2022-10-29T00:21:59.224Z,21.02
2022-10-29T00:24:25.910Z,20.79
2022-10-29T00:26:52.642Z,20.97
2022-10-29T00:29:19.331Z,20.98
2022-10-29T00:31:46.045Z,20.97
2022-10-29T00:34:12.941Z,20.90
2022-10-29T00:36:39.972Z,20.95
2022-10-29T00:39:06.667Z,20.96
2022-10-29T00:41:33.395Z,20.95
2022-10-29T00:44:35.718Z,20.96
2022-10-29T00:47:31.900Z,20.95
2022-10-29T00:50:10.915Z,20.98
2022-10-29T00:52:42.419Z,20.89
2022-10-29T00:55:10.299Z,20.87
2022-10-29T00:57:39.801Z,20.86
2022-10-29T01:00:07.404Z,20.85
2022-10-29T01:02:35.966Z,20.89
2022-10-29T01:05:04.204Z,20.87
2022-10-29T01:07:30.957Z,20.86
2022-10-29T01:09:57.849Z,20.88
2022-10-29T01:12:44.171Z,20.95
2022-10-29T01:15:16.335Z,21.08
2022-10-29T01:18:10.962Z,20.96
2022-10-29T01:21:08.922Z,20.91
2022-10-29T01:23:42.624Z,20.74
2022-10-29T01:26:28.148Z,20.85
2022-10-29T01:28:54.775Z,20.78
2022-10-29T01:31:49.141Z,20.79
2022-10-29T01:34:33.046Z,20.96
2022-10-29T01:37:02.632Z,21.01
2022-10-29T01:39:45.303Z,20.99
2022-10-29T01:42:27.423Z,20.96
2022-10-29T01:45:16.758Z,20.93
2022-10-29T01:47:55.323Z,20.70
2022-10-29T01:50:23.997Z,20.72
2022-10-29T01:52:51.328Z,20.65
2022-10-29T01:55:23.923Z,20.65
2022-10-29T01:57:51.061Z,20.52
2022-10-29T02:00:20.094Z,20.61
2022-10-29T02:03:21.053Z,20.65
2022-10-29T02:06:00.525Z,20.70
2022-10-29T02:08:27.231Z,20.76
2022-10-29T02:11:01.152Z,20.73
2022-10-29T02:13:33.106Z,20.76
2022-10-29T02:16:02.984Z,20.88
2022-10-29T02:18:29.740Z,20.71
2022-10-29T02:20:56.400Z,20.52
2022-10-29T02:23:23.168Z,20.57
2022-10-29T02:25:50.169Z,20.50
2022-10-29T02:28:16.848Z,20.49
2022-10-29T02:30:43.589Z,20.44
2022-10-29T02:33:10.378Z,20.53
2022-10-29T02:35:37.173Z,20.53
2022-10-29T02:38:03.872Z,20.54
2022-10-29T02:40:30.564Z,20.52
2022-10-29T02:42:57.593Z,20.51
2022-10-29T02:45:24.374Z,20.30
2022-10-29T02:47:51.018Z,20.31
2022-10-29T02:50:18.049Z,20.27
2022-10-29T02:52:44.865Z,19.81
2022-10-29T02:55:11.538Z,19.92
2022-10-29T02:57:38.141Z,20.32
2022-10-29T03:00:05.935Z,20.31
2022-10-29T03:02:32.735Z,20.21
2022-10-29T03:04:59.456Z,20.32
2022-10-29T03:07:26.055Z,20.40
2022-10-29T03:09:52.667Z,20.21
2022-10-29T03:12:19.550Z,20.38
2022-10-29T03:14:46.295Z,20.42
2022-10-29T03:17:13.108Z,20.36
2022-10-29T03:19:39.792Z,20.55
2022-10-29T03:22:06.568Z,20.63
2022-10-29T03:24:33.254Z,20.71
2022-10-29T03:27:00.018Z,20.26
2022-10-29T03:29:26.661Z,20.56
2022-10-29T03:31:53.364Z,20.35
2022-10-29T03:34:20.161Z,20.37
2022-10-29T03:36:46.820Z,20.42
2022-10-29T03:39:13.488Z,20.45
2022-10-29T03:41:40.164Z,20.42
2022-10-29T03:44:06.832Z,20.42
2022-10-29T03:46:34.220Z,20.40
2022-10-29T03:49:00.931Z,20.42
2022-10-29T03:51:27.818Z,20.41
2022-10-29T03:53:54.704Z,20.16
2022-10-29T03:56:21.573Z,20.03
2022-10-29T03:58:48.225Z,20.01
2022-10-29T04:01:15.001Z,19.95
2022-10-29T04:03:42.550Z,19.96
2022-10-29T04:06:13.697Z,19.88
2022-10-29T04:08:40.657Z,19.82
2022-10-29T04:11:10.578Z,19.77
2022-10-29T04:13:37.521Z,19.74
2022-10-29T04:16:04.455Z,19.57
2022-10-29T04:18:31.219Z,19.47
2022-10-29T04:29:23.156Z,19.86
2022-10-29T04:31:49.973Z,19.80
2022-10-29T04:34:16.815Z,19.70
2022-10-29T04:36:43.464Z,19.74
2022-10-29T04:39:10.306Z,19.66
2022-10-29T04:41:36.978Z,19.95
2022-10-29T04:44:03.832Z,19.87
2022-10-29T04:46:30.483Z,20.10
2022-10-29T04:48:57.392Z,19.93
2022-10-29T04:51:26.132Z,19.92
2022-10-29T04:53:52.862Z,19.80
2022-10-29T04:56:19.603Z,20.20
2022-10-29T04:58:46.392Z,20.08
2022-10-29T05:01:13.316Z,19.91
2022-10-29T05:03:40.207Z,20.10
2022-10-29T05:06:07.335Z,19.76
2022-10-29T05:08:34.195Z,19.96
2022-10-29T05:11:05.137Z,20.08
2022-10-29T05:13:32.991Z,20.19
2022-10-29T05:16:00.051Z,19.96
2022-10-29T05:18:26.918Z,20.04
2022-10-29T05:20:54.890Z,20.07
2022-10-29T05:23:22.203Z,20.03
2022-10-29T05:25:49.333Z,20.09
2022-10-29T05:28:20.863Z,20.14
2022-10-29T05:30:49.595Z,20.11
2022-10-29T05:33:18.321Z,20.03
2022-10-29T05:35:45.116Z,20.14
2022-10-29T05:38:12.709Z,20.08
2022-10-29T05:40:39.825Z,20.11
2022-10-29T05:43:06.476Z,20.03
2022-10-29T05:45:33.131Z,20.00
2022-10-29T05:48:02.153Z,19.98
2022-10-29T05:50:29.631Z,20.06
2022-10-29T05:52:56.467Z,20.07
2022-10-29T05:55:25.529Z,19.99
2022-10-29T05:58:01.911Z,20.06
2022-10-29T06:00:30.530Z,20.06
2022-10-29T06:02:57.803Z,20.17
2022-10-29T06:05:25.404Z,20.15
2022-10-29T06:07:56.480Z,20.06
2022-10-29T06:10:23.963Z,20.02
2022-10-29T06:12:50.810Z,20.28
2022-10-29T06:15:18.322Z,20.16
2022-10-29T06:17:45.710Z,20.15
2022-10-29T06:20:14.621Z,20.16
2022-10-29T06:22:41.309Z,19.79
2022-10-29T06:25:08.604Z,19.88
2022-10-29T06:27:35.528Z,19.97
2022-10-29T06:30:02.399Z,20.08
2022-10-29T06:32:29.231Z,20.09
2022-10-29T06:34:55.888Z,19.96
2022-10-29T06:37:22.603Z,20.10
2022-10-29T06:39:49.764Z,20.01
2022-10-29T06:42:16.550Z,19.99
2022-10-29T06:44:43.290Z,19.66
2022-10-29T06:47:10.005Z,19.62
2022-10-29T06:49:36.717Z,19.68
2022-10-29T06:52:03.490Z,19.75
2022-10-29T06:54:30.233Z,19.85
2022-10-29T06:56:56.967Z,19.67
2022-10-29T06:59:25.670Z,19.68
2022-10-29T07:01:53.038Z,19.76
2022-10-29T07:04:20.884Z,19.85
2022-10-29T07:06:47.536Z,19.78
2022-10-29T07:09:14.359Z,19.74
2022-10-29T07:11:41.056Z,19.82
2022-10-29T07:14:09.899Z,19.81
2022-10-29T07:16:37.019Z,19.89
2022-10-29T07:19:04.337Z,19.87
2022-10-29T07:21:31.111Z,19.71
2022-10-29T07:23:57.839Z,19.88
2022-10-29T07:26:24.641Z,19.69
2022-10-29T07:28:51.345Z,19.71
2022-10-29T07:31:18.089Z,19.87
2022-10-29T07:33:44.801Z,20.07
2022-10-29T07:36:17.314Z,19.72
2022-10-29T07:38:44.540Z,19.70
2022-10-29T07:41:11.221Z,19.89
2022-10-29T07:43:37.985Z,20.15
2022-10-29T07:46:04.833Z,20.29
2022-10-29T07:48:38.070Z,20.72
2022-10-29T07:51:05.140Z,20.62
2022-10-29T07:53:35.053Z,20.85
2022-10-29T07:56:01.999Z,21.31
2022-10-29T07:58:28.644Z,21.17
2022-10-29T08:00:55.437Z,21.25
2022-10-29T08:03:22.388Z,21.11
2022-10-29T08:05:55.337Z,20.59
2022-10-29T08:08:24.004Z,20.88
2022-10-29T08:10:50.858Z,20.83
2022-10-29T08:13:17.545Z,21.14
2022-10-29T08:15:46.597Z,22.40
2022-10-29T08:18:20.138Z,22.35
2022-10-29T08:20:47.469Z,21.44
2022-10-29T08:23:14.810Z,21.16
2022-10-29T08:25:53.173Z,20.56
2022-10-29T08:28:40.531Z,20.97
2022-10-29T08:31:07.652Z,21.58
2022-10-29T08:33:34.584Z,22.30
2022-10-29T08:36:01.850Z,22.64
2022-10-29T08:38:28.911Z,22.48
2022-10-29T08:41:33.700Z,21.60
2022-10-29T08:44:32.669Z,21.10
2022-10-29T08:47:09.400Z,21.17
2022-10-29T08:49:45.825Z,21.53
2022-10-29T08:52:19.977Z,21.49
2022-10-29T08:55:14.138Z,21.35
2022-10-29T08:57:54.994Z,21.70
2022-10-29T09:00:25.890Z,21.57
2022-10-29T09:03:15.798Z,21.46
2022-10-29T09:06:15.796Z,21.56
2022-10-29T09:09:07.468Z,21.88
2022-10-29T09:11:43.367Z,21.71
2022-10-29T09:14:38.363Z,21.96
2022-10-29T09:17:15.774Z,21.59
2022-10-29T09:20:27.995Z,21.48
2022-10-29T09:23:14.504Z,21.68
2022-10-29T09:25:59.995Z,21.67
2022-10-29T09:28:48.433Z,21.57
2022-10-29T09:32:00.640Z,21.41
2022-10-29T09:34:31.607Z,21.48
2022-10-29T09:36:59.960Z,21.50
2022-10-29T09:39:46.293Z,21.69
2022-10-29T09:42:17.710Z,21.71
2022-10-29T09:45:12.265Z,21.76
2022-10-29T09:48:01.285Z,22.12
2022-10-29T09:50:54.888Z,22.12
2022-10-29T09:53:24.769Z,21.85
2022-10-29T09:55:57.074Z,22.24
2022-10-29T09:58:27.889Z,22.02
2022-10-29T10:01:31.171Z,22.13
2022-10-29T10:05:06.871Z,22.19
2022-10-29T10:07:37.076Z,21.96
2022-10-29T10:10:07.071Z,22.08
2022-10-29T10:12:45.630Z,22.59
2022-10-29T10:15:25.948Z,22.63
2022-10-29T10:18:03.202Z,22.60
2022-10-29T10:20:49.765Z,22.88
2022-10-29T10:23:21.193Z,22.90
2022-10-29T10:25:48.915Z,22.71
2022-10-29T10:28:30.305Z,22.78
2022-10-29T10:31:26.737Z,22.74
2022-10-29T10:33:56.442Z,22.44
2022-10-29T10:36:32.111Z,22.63
2022-10-29T10:39:02.413Z,22.82
2022-10-29T10:41:35.436Z,22.85
2022-10-29T10:44:04.516Z,23.01
2022-10-29T10:46:36.821Z,23.06
2022-10-29T10:49:42.040Z,22.87
2022-10-29T10:52:22.509Z,23.08
2022-10-29T10:55:01.923Z,22.97
2022-10-29T10:57:57.215Z,22.92
2022-10-29T11:00:28.898Z,22.72
2022-10-29T11:03:09.259Z,22.91
2022-10-29T11:05:49.437Z,23.00
2022-10-29T11:08:27.036Z,23.17
2022-10-29T11:10:56.906Z,23.30
2022-10-29T11:13:27.529Z,23.23
2022-10-29T11:16:02.911Z,23.44
2022-10-29T11:18:56.270Z,23.48
2022-10-29T11:21:35.912Z,23.49
2022-10-29T11:24:26.169Z,23.63
2022-10-29T11:27:06.996Z,23.56
2022-10-29T11:30:02.347Z,23.57
2022-10-29T11:32:47.040Z,23.61
2022-10-29T11:35:19.896Z,24.03
2022-10-29T11:37:56.834Z,23.76
2022-10-29T11:40:46.591Z,23.64
2022-10-29T11:43:14.957Z,23.85
2022-10-29T11:46:00.268Z,24.03
2022-10-29T11:48:49.185Z,24.28
2022-10-29T11:51:34.671Z,24.13
2022-10-29T11:54:23.689Z,24.24
2022-10-29T11:57:04.640Z,24.35
2022-10-29T11:59:53.051Z,24.19
2022-10-29T12:02:56.305Z,24.47
2022-10-29T12:06:01.911Z,24.37
2022-10-29T12:08:42.753Z,24.19
2022-10-29T12:11:27.438Z,24.47
2022-10-29T12:14:13.025Z,24.30
2022-10-29T12:16:51.631Z,24.56
2022-10-29T12:19:41.002Z,24.51
2022-10-29T12:22:33.854Z,24.55
2022-10-29T12:25:10.534Z,24.27
2022-10-29T12:27:45.162Z,24.33
2022-10-29T12:30:15.579Z,24.44
2022-10-29T12:32:52.502Z,24.43
2022-10-29T12:35:39.116Z,24.41
2022-10-29T12:38:30.599Z,24.26
2022-10-29T12:41:25.513Z,24.33
2022-10-29T12:43:55.957Z,24.19
2022-10-29T12:46:43.160Z,24.25
2022-10-29T12:49:28.533Z,24.11
2022-10-29T12:54:32.539Z,24.04
2022-10-29T12:57:15.016Z,24.03
2022-10-29T12:59:43.272Z,24.41
2022-10-29T13:02:51.856Z,24.34
2022-10-29T13:05:25.714Z,24.48
2022-10-29T13:08:01.718Z,24.76
2022-10-29T13:10:34.573Z,24.32
2022-10-29T13:13:02.799Z,24.28
2022-10-29T13:15:37.099Z,24.82
2022-10-29T13:18:44.729Z,24.95
2022-10-29T13:21:11.524Z,24.92
2022-10-29T13:23:40.912Z,24.77
2022-10-29T13:26:08.932Z,24.88
2022-10-29T13:28:35.683Z,24.71
2022-10-29T13:31:08.677Z,24.54
2022-10-29T13:33:38.615Z,24.87
2022-10-29T13:36:06.961Z,24.68
2022-10-29T13:38:58.600Z,24.67
2022-10-29T13:41:43.652Z,24.76
2022-10-29T13:44:13.484Z,24.61
2022-10-29T13:46:50.792Z,24.64
2022-10-29T13:49:28.175Z,24.86
2022-10-29T13:52:02.495Z,24.89
2022-10-29T13:54:39.749Z,24.69
2022-10-29T13:57:12.654Z,24.77
2022-10-29T14:00:00.214Z,24.90
2022-10-29T14:02:42.387Z,24.70
2022-10-29T14:05:15.203Z,24.77
2022-10-29T14:07:59.937Z,24.93
2022-10-29T14:10:50.078Z,24.52
2022-10-29T14:13:23.641Z,24.37
2022-10-29T14:16:03.820Z,24.35
2022-10-29T14:18:32.680Z,24.33
2022-10-29T14:21:01.470Z,24.63
2022-10-29T14:23:29.830Z,24.37
2022-10-29T14:26:00.369Z,24.26
2022-10-29T14:28:30.297Z,24.10
2022-10-29T14:31:07.327Z,24.18
2022-10-29T14:33:36.455Z,24.17
2022-10-29T14:36:31.365Z,24.23
2022-10-29T14:39:02.599Z,24.08
2022-10-29T14:41:30.989Z,24.13
2022-10-29T14:44:29.047Z,24.26
2022-10-29T14:47:32.143Z,24.27
2022-10-29T14:50:03.090Z,24.12
2022-10-29T14:52:38.789Z,24.20
2022-10-29T14:55:17.495Z,24.21
2022-10-29T14:57:47.847Z,24.08
2022-10-29T15:00:26.874Z,24.28
2022-10-29T15:02:55.332Z,24.19
2022-10-29T15:05:24.515Z,24.19
2022-10-29T15:07:51.465Z,23.85
2022-10-29T15:10:24.970Z,23.77
2022-10-29T15:12:52.533Z,23.87
2022-10-29T15:15:19.475Z,23.88
2022-10-29T15:18:08.497Z,23.84
2022-10-29T15:20:37.976Z,23.69
2022-10-29T15:23:05.269Z,23.70
2022-10-29T15:25:42.154Z,23.91
2022-10-29T15:28:11.265Z,23.79
2022-10-29T15:30:44.687Z,23.89
2022-10-29T15:33:21.568Z,23.81
2022-10-29T15:36:13.806Z,23.50
2022-10-29T15:38:52.425Z,23.54
2022-10-29T15:41:52.609Z,23.69
2022-10-29T15:44:29.703Z,23.32
2022-10-29T15:47:00.578Z,23.59
2022-10-29T15:49:35.237Z,23.49
2022-10-29T15:52:06.743Z,23.39
2022-10-29T15:54:36.948Z,23.39
2022-10-29T15:57:04.266Z,23.39
2022-10-29T15:59:31.935Z,23.43
2022-10-29T16:02:05.278Z,23.38
2022-10-29T16:04:40.349Z,23.21
2022-10-29T16:07:18.037Z,23.28
2022-10-29T16:09:54.009Z,23.05
2022-10-29T16:12:21.214Z,22.96
2022-10-29T16:14:47.971Z,22.91
2022-10-29T16:17:17.597Z,23.13
2022-10-29T16:19:44.576Z,23.17
2022-10-29T16:22:17.519Z,23.12
2022-10-29T16:24:47.849Z,23.14
2022-10-29T16:27:16.823Z,22.73
2022-10-29T16:29:43.480Z,22.66
2022-10-29T16:32:15.416Z,22.89
2022-10-29T16:34:42.407Z,22.93
2022-10-29T16:37:14.497Z,23.00
2022-10-29T16:39:41.869Z,22.84
2022-10-29T16:42:28.782Z,22.94
2022-10-29T16:44:55.794Z,23.02
2022-10-29T16:47:22.587Z,23.05
2022-10-29T16:49:49.548Z,22.99
2022-10-29T16:52:21.000Z,22.99
2022-10-29T16:54:50.291Z,22.90
2022-10-29T16:57:17.047Z,22.83
2022-10-29T16:59:43.807Z,22.71
2022-10-29T17:02:11.482Z,22.89
2022-10-29T17:04:38.386Z,22.93
2022-10-29T17:07:05.171Z,22.91
2022-10-29T17:09:35.380Z,22.91
2022-10-29T17:12:02.469Z,22.87
2022-10-29T17:14:29.279Z,22.83
2022-10-29T17:16:57.243Z,22.81
2022-10-29T17:19:24.200Z,22.77
2022-10-29T17:21:51.233Z,22.74
2022-10-29T17:24:17.997Z,22.78
2022-10-29T17:26:44.872Z,22.60
2022-10-29T17:29:11.739Z,22.69
2022-10-29T17:31:38.603Z,22.62
2022-10-29T17:34:05.441Z,22.62
2022-10-29T17:36:32.271Z,22.74
2022-10-29T17:38:59.143Z,22.70
2022-10-29T17:41:25.896Z,22.60
2022-10-29T17:43:52.741Z,22.63
2022-10-29T17:46:19.589Z,22.54
2022-10-29T17:48:46.269Z,22.52
2022-10-29T17:51:13.125Z,22.47
2022-10-29T17:53:39.900Z,22.53
2022-10-29T17:56:15.694Z,22.61
2022-10-29T17:58:42.510Z,22.34
2022-10-29T18:01:10.497Z,22.41
2022-10-29T18:03:38.131Z,22.40
2022-10-29T18:06:07.703Z,22.21
2022-10-29T18:08:39.046Z,22.18
2022-10-29T18:11:14.780Z,22.11
2022-10-29T18:13:43.233Z,22.04
2022-10-29T18:16:18.614Z,22.12
2022-10-29T18:19:00.938Z,22.21
2022-10-29T18:21:37.632Z,22.17
2022-10-29T18:24:06.999Z,22.05
2022-10-29T18:26:37.527Z,22.24
2022-10-29T18:29:08.609Z,22.27
2022-10-29T18:31:35.814Z,22.30
2022-10-29T18:34:06.693Z,22.36
2022-10-29T18:36:35.872Z,22.25
2022-10-29T18:39:04.167Z,22.24
2022-10-29T18:41:40.525Z,21.92
2022-10-29T18:44:12.637Z,21.88
2022-10-29T18:46:47.898Z,21.98
2022-10-29T18:49:14.777Z,21.73
2022-10-29T18:51:41.734Z,21.76
2022-10-29T18:54:10.671Z,21.88
2022-10-29T18:56:37.455Z,21.83
2022-10-29T18:59:04.592Z,21.80
2022-10-29T19:01:32.922Z,21.90
2022-10-29T19:04:02.268Z,21.91
2022-10-29T19:06:30.751Z,21.79
2022-10-29T19:09:00.223Z,21.79
2022-10-29T19:11:27.794Z,21.88
2022-10-29T19:13:59.788Z,21.89
2022-10-29T19:16:27.261Z,21.70
2022-10-29T19:18:56.145Z,21.91
2022-10-29T19:21:22.944Z,21.78
2022-10-29T19:23:57.473Z,21.93
2022-10-29T19:26:25.946Z,21.91
2022-10-29T19:28:53.198Z,21.87
2022-10-29T19:31:26.629Z,21.74
2022-10-29T19:33:56.027Z,21.93
2022-10-29T19:36:23.688Z,21.74
2022-10-29T19:38:50.866Z,21.83
2022-10-29T19:41:18.111Z,21.82
2022-10-29T19:43:45.553Z,21.73
2022-10-29T19:46:17.923Z,21.77
2022-10-29T19:48:50.446Z,21.81
2022-10-29T19:51:17.780Z,21.81
2022-10-29T19:53:45.217Z,21.78
2022-10-29T19:56:13.764Z,21.76
2022-10-29T19:58:40.669Z,21.74
2022-10-29T20:01:10.596Z,21.69
2022-10-29T20:03:37.533Z,21.68
2022-10-29T20:06:04.500Z,21.70
2022-10-29T20:08:31.389Z,21.69
2022-10-29T20:10:59.354Z,21.67
2022-10-29T20:13:26.604Z,21.70
2022-10-29T20:15:53.729Z,21.59
2022-10-29T20:18:20.962Z,21.60
2022-10-29T20:20:55.070Z,21.61
2022-10-29T20:23:22.336Z,21.62
2022-10-29T20:25:49.123Z,21.73
2022-10-29T20:28:16.339Z,21.65
2022-10-29T20:30:43.481Z,21.70
2022-10-29T20:33:10.427Z,21.71
2022-10-29T20:35:38.858Z,21.69
2022-10-29T20:38:06.496Z,21.71
2022-10-29T20:40:34.193Z,21.70
2022-10-29T20:43:01.045Z,21.67
2022-10-29T20:45:28.011Z,21.64
2022-10-29T20:47:55.185Z,21.61
2022-10-29T20:50:22.574Z,21.61
2022-10-29T20:52:51.538Z,21.48
2022-10-29T20:55:18.387Z,21.52
2022-10-29T20:57:45.143Z,21.54
2022-10-29T21:00:12.332Z,21.57
2022-10-29T21:02:39.182Z,21.59
2022-10-29T21:05:06.562Z,21.47
2022-10-29T21:07:33.679Z,21.49
2022-10-29T21:12:27.220Z,21.39
2022-10-29T21:14:54.053Z,21.41
2022-10-29T21:17:22.215Z,21.35
2022-10-29T21:19:49.314Z,21.35
2022-10-29T21:22:18.881Z,21.33
2022-10-29T21:24:46.162Z,21.37
2022-10-29T21:27:12.984Z,21.27
2022-10-29T21:29:40.259Z,21.23
2022-10-29T21:32:10.223Z,21.28
2022-10-29T21:34:41.214Z,21.32
2022-10-29T21:37:07.897Z,21.31
2022-10-29T21:39:34.955Z,21.21
2022-10-29T21:42:01.820Z,21.19
2022-10-29T21:44:28.531Z,21.29
2022-10-29T21:46:55.306Z,21.25
2022-10-29T21:49:22.062Z,21.30
2022-10-29T21:51:50.005Z,21.20
2022-10-29T21:54:16.731Z,21.24
2022-10-29T21:56:43.804Z,21.30
2022-10-29T21:59:10.673Z,21.19
2022-10-29T22:01:37.555Z,21.28
2022-10-29T22:04:05.540Z,21.22
2022-10-29T22:06:32.290Z,21.14
2022-10-29T22:09:00.158Z,21.09
2022-10-29T22:11:30.074Z,20.97
2022-10-29T22:13:56.946Z,21.05
2022-10-29T22:16:23.801Z,21.10
2022-10-29T22:18:51.140Z,21.00
2022-10-29T22:21:23.927Z,21.05
2022-10-29T22:23:53.148Z,20.95
2022-10-29T22:26:22.039Z,21.01
2022-10-29T22:28:50.993Z,20.95
2022-10-29T22:31:19.801Z,20.97
2022-10-29T22:33:46.708Z,21.11
2022-10-29T22:36:19.097Z,21.04
2022-10-29T22:38:46.484Z,20.97
2022-10-29T22:41:15.857Z,21.02
2022-10-29T22:43:43.873Z,20.94
2022-10-29T22:46:12.891Z,20.88
2022-10-29T22:48:40.360Z,20.92
2022-10-29T22:51:10.914Z,20.80
2022-10-29T22:53:37.771Z,20.75
2022-10-29T22:56:05.645Z,20.70
2022-10-29T22:58:34.939Z,20.73
2022-10-29T23:01:12.308Z,20.76
2022-10-29T23:03:40.081Z,20.70
2022-10-29T23:06:08.951Z,20.64
2022-10-29T23:08:36.042Z,20.64
2022-10-29T23:14:35.793Z,20.70
2022-10-29T23:17:02.791Z,20.67
2022-10-29T23:19:29.523Z,20.42
2022-10-29T23:21:56.454Z,20.54
2022-10-29T23:24:23.423Z,20.63
2022-10-29T23:26:50.074Z,20.56
2022-10-29T23:29:16.953Z,20.68
2022-10-29T23:31:44.175Z,20.47
2022-10-29T23:34:12.121Z,20.41
2022-10-29T23:36:39.050Z,20.28
2022-10-29T23:39:05.776Z,20.35
2022-10-29T23:41:32.427Z,20.23
2022-10-29T23:43:59.204Z,20.29
2022-10-29T23:46:26.073Z,20.13
2022-10-29T23:48:52.760Z,20.08
2022-10-29T23:51:19.649Z,20.00
2022-10-29T23:53:46.383Z,20.09
2022-10-29T23:56:13.327Z,20.05
2022-10-29T23:58:40.639Z,20.29
